createdAt,value
2022-12-19T00:00:19.748Z,59.72
2022-12-19T00:04:22.565Z,65.63
2022-12-19T00:08:26.748Z,61.10
2022-12-19T00:12:29.524Z,59.55
2022-12-19T00:16:32.446Z,72.70
2022-12-19T00:20:35.549Z,64.10
2022-12-19T00:24:39.684Z,64.72
2022-12-19T00:28:44.018Z,69.50
2022-12-19T00:32:47.662Z,66.15
2022-12-19T00:36:50.491Z,70.90
2022-12-19T00:40:54.807Z,71.85
2022-12-19T00:44:57.841Z,60.17
2022-12-19T00:49:04.081Z,60.58
2022-12-19T00:53:06.844Z,63.75
2022-12-19T00:57:11.432Z,64.40
2022-12-19T01:01:19.296Z,63.85
2022-12-19T01:05:22.204Z,62.20
2022-12-19T01:09:25.141Z,71.80
2022-12-19T01:13:32.353Z,72.00
2022-12-19T01:17:43.503Z,66.05
2022-12-19T01:21:48.090Z,75.22
2022-12-19T01:25:55.780Z,68.82
2022-12-19T01:30:00.017Z,71.65
2022-12-19T01:34:02.817Z,66.90
2022-12-19T01:38:08.564Z,66.43
2022-12-19T01:42:15.720Z,62.30
2022-12-19T01:46:23.904Z,64.63
2022-12-19T01:50:35.797Z,68.15
2022-12-19T01:54:40.987Z,65.32
2022-12-19T01:58:46.447Z,65.45
2022-12-19T02:02:58.056Z,64.38
2022-12-19T02:07:04.737Z,73.95
2022-12-19T02:11:17.748Z,76.60
2022-12-19T02:15:21.913Z,78.97
2022-12-19T02:19:57.042Z,68.72
2022-12-19T02:24:48.246Z,69.85
2022-12-19T02:29:14.592Z,67.32
2022-12-19T02:33:26.547Z,72.18
2022-12-19T02:37:31.888Z,72.75
2022-12-19T02:41:46.129Z,65.10
2022-12-19T02:45:56.881Z,62.03
2022-12-19T02:50:04.446Z,62.47
2022-12-19T02:54:08.630Z,65.65
2022-12-19T02:58:30.787Z,68.82
2022-12-19T03:02:47.094Z,57.63
2022-12-19T03:07:04.950Z,75.57
2022-12-19T03:11:13.326Z,63.10
2022-12-19T03:15:21.054Z,62.72
2022-12-19T03:19:25.045Z,60.22
2022-12-19T03:23:30.512Z,65.47
2022-12-19T03:27:38.503Z,57.97
2022-12-19T03:31:43.311Z,63.75
2022-12-19T03:35:53.814Z,62.63
2022-12-19T03:40:01.946Z,73.15
2022-12-19T03:44:06.292Z,68.72
2022-12-19T03:48:15.834Z,66.82
2022-12-19T03:52:27.520Z,59.00
2022-12-19T03:56:38.437Z,70.88
2022-12-19T04:00:47.236Z,71.18
2022-12-19T04:04:53.469Z,71.93
2022-12-19T04:08:57.822Z,68.05
2022-12-19T04:13:05.856Z,73.95
2022-12-19T04:17:17.881Z,70.75
2022-12-19T04:21:26.079Z,73.82
2022-12-19T04:25:33.066Z,68.72
2022-12-19T04:29:38.896Z,64.22
2022-12-19T04:37:44.636Z,62.72
2022-12-19T04:41:47.432Z,57.90
2022-12-19T04:45:56.986Z,73.63
2022-12-19T04:50:00.272Z,63.63
2022-12-19T04:54:03.074Z,65.18
2022-12-19T04:58:06.261Z,55.67
2022-12-19T05:02:10.524Z,58.40
2022-12-19T05:06:15.358Z,56.65
2022-12-19T05:10:18.227Z,62.33
2022-12-19T05:14:21.128Z,59.70
2022-12-19T05:18:25.472Z,54.28
2022-12-19T05:22:28.334Z,61.15
2022-12-19T05:26:31.196Z,59.63
2022-12-19T05:30:33.958Z,53.88
2022-12-19T05:34:38.166Z,57.47
2022-12-19T05:38:40.982Z,51.53
2022-12-19T05:42:43.778Z,56.22
2022-12-19T05:46:46.738Z,59.33
2022-12-19T05:50:51.582Z,57.25
2022-12-19T05:54:54.465Z,63.88
2022-12-19T05:58:57.395Z,54.53
2022-12-19T06:03:00.329Z,53.92
2022-12-19T06:07:05.443Z,59.78
2022-12-19T06:11:09.559Z,65.67
2022-12-19T06:15:13.511Z,55.75
2022-12-19T06:19:16.328Z,66.55
2022-12-19T06:23:20.698Z,57.88
2022-12-19T06:27:23.550Z,66.68
2022-12-19T06:31:26.724Z,56.55
2022-12-19T06:35:29.551Z,69.07
2022-12-19T06:39:33.650Z,55.33
2022-12-19T06:43:36.447Z,55.55
2022-12-19T06:47:39.267Z,54.35
2022-12-19T06:51:42.048Z,56.70
2022-12-19T06:55:46.160Z,57.88
2022-12-19T06:59:48.934Z,59.28
2022-12-19T07:03:51.942Z,57.88
2022-12-19T07:07:54.722Z,58.65
2022-12-19T07:11:59.169Z,57.90
2022-12-19T07:16:04.798Z,62.00
2022-12-19T07:20:08.682Z,59.97
2022-12-19T07:24:12.749Z,55.65
2022-12-19T07:28:17.588Z,54.95
2022-12-19T07:32:20.333Z,57.10
2022-12-19T07:36:23.109Z,53.00
2022-12-19T07:40:25.818Z,55.35
2022-12-19T07:44:29.902Z,53.45
2022-12-19T07:48:32.647Z,53.38
2022-12-19T07:52:35.376Z,54.60
2022-12-19T07:56:38.164Z,48.75
2022-12-19T08:00:42.634Z,50.85
2022-12-19T08:04:45.461Z,48.00
2022-12-19T08:08:48.241Z,51.72
2022-12-19T08:12:51.338Z,47.80
2022-12-19T08:17:19.698Z,50.10
2022-12-19T08:21:18.224Z,45.47
2022-12-19T08:25:21.034Z,45.35
2022-12-19T08:29:24.126Z,44.83
2022-12-19T08:33:28.664Z,42.15
2022-12-19T08:37:31.470Z,48.30
2022-12-19T08:41:34.276Z,45.80
2022-12-19T08:45:37.128Z,45.20
2022-12-19T08:49:41.305Z,46.78
2022-12-19T08:53:46.171Z,46.28
2022-12-19T08:57:48.934Z,47.97
2022-12-19T09:01:52.149Z,44.08
2022-12-19T09:06:07.055Z,43.93
2022-12-19T09:10:13.280Z,35.53
2022-12-19T09:14:21.178Z,45.28
2022-12-19T09:18:24.415Z,40.28
2022-12-19T09:22:29.571Z,39.38
2022-12-19T09:26:32.945Z,37.73
2022-12-19T09:30:36.794Z,39.10
2022-12-19T09:34:39.824Z,33.47
2022-12-19T09:38:44.479Z,41.20
2022-12-19T09:43:08.788Z,46.03
2022-12-19T09:47:14.460Z,50.65
2022-12-19T09:51:30.454Z,42.60
2022-12-19T09:55:36.697Z,47.28
2022-12-19T09:59:49.725Z,40.67
2022-12-19T10:04:02.350Z,40.30
2022-12-19T10:08:18.033Z,38.38
2022-12-19T10:12:52.275Z,36.47
2022-12-19T10:17:24.121Z,40.40
2022-12-19T10:22:15.859Z,38.28
2022-12-19T10:26:01.270Z,40.67
2022-12-19T10:30:14.452Z,40.03
2022-12-19T10:34:20.715Z,40.35
2022-12-19T10:38:28.299Z,36.30
2022-12-19T10:42:41.738Z,36.50
2022-12-19T10:46:47.396Z,38.53
2022-12-19T10:50:50.552Z,34.40
2022-12-19T10:54:53.321Z,33.85
2022-12-19T10:58:58.882Z,30.58
2022-12-19T11:03:20.386Z,27.23
2022-12-19T11:07:23.378Z,23.17
2022-12-19T11:13:19.422Z,25.70
2022-12-19T11:18:24.913Z,28.08
2022-12-19T11:29:24.991Z,24.13
2022-12-19T11:30:35.208Z,23.55
2022-12-19T11:31:52.977Z,24.48
2022-12-19T11:33:47.013Z,27.23
2022-12-19T11:37:56.029Z,25.20
2022-12-19T11:42:04.130Z,26.90
2022-12-19T11:46:17.663Z,25.80
2022-12-19T11:50:27.657Z,23.75
2022-12-19T11:58:36.441Z,39.78
2022-12-19T12:03:05.771Z,37.95
2022-12-19T12:07:14.442Z,50.72
2022-12-19T12:17:16.960Z,38.20
2022-12-19T12:30:59.574Z,39.05
2022-12-19T12:31:04.639Z,39.03
2022-12-19T12:31:38.594Z,37.40
2022-12-19T12:31:50.628Z,43.92
2022-12-19T12:35:52.365Z,38.10
2022-12-19T12:39:05.627Z,34.17
2022-12-19T12:43:24.537Z,34.67
2022-12-19T12:47:28.995Z,43.92
2022-12-19T12:51:33.849Z,37.40
2022-12-19T12:55:41.281Z,33.63
2022-12-19T12:59:46.745Z,36.25
2022-12-19T13:03:57.424Z,31.07
2022-12-19T13:08:00.312Z,30.73
2022-12-19T13:12:30.400Z,29.42
2022-12-19T13:16:53.490Z,34.42
2022-12-19T13:20:58.830Z,28.38
2022-12-19T13:25:02.020Z,19.98
2022-12-19T13:29:26.797Z,20.77
2022-12-19T13:33:47.018Z,27.20
2022-12-19T13:39:54.296Z,37.53
2022-12-19T13:42:42.267Z,31.02
2022-12-19T13:46:46.846Z,33.72
2022-12-19T13:50:50.551Z,39.60
2022-12-19T13:54:58.693Z,32.60
2022-12-19T13:59:04.871Z,28.73
2022-12-19T14:03:16.395Z,34.22
2022-12-19T14:07:36.760Z,51.50
2022-12-19T14:12:29.758Z,48.33
2022-12-19T14:16:08.090Z,50.58
2022-12-19T14:22:07.369Z,60.10
2022-12-19T14:24:42.707Z,64.78
2022-12-19T14:28:54.949Z,59.55
2022-12-19T14:33:40.719Z,51.47
2022-12-19T14:37:31.473Z,55.85
2022-12-19T14:42:13.978Z,57.72
2022-12-19T14:54:10.928Z,61.30
2022-12-19T14:54:11.033Z,62.00
2022-12-19T14:56:17.751Z,62.60
2022-12-19T14:59:58.164Z,58.78
2022-12-19T15:04:52.641Z,62.47
2022-12-19T15:11:00.470Z,60.13
2022-12-19T15:14:48.362Z,66.22
2022-12-19T15:17:47.133Z,60.58
2022-12-19T15:21:51.999Z,65.45
2022-12-19T15:26:05.776Z,69.85
2022-12-19T15:30:17.890Z,78.45
2022-12-19T15:34:36.213Z,77.90
2022-12-19T15:38:45.863Z,83.25
2022-12-19T15:42:54.999Z,79.40
2022-12-19T15:46:57.947Z,70.05
2022-12-19T15:51:00.783Z,79.72
2022-12-19T15:55:05.610Z,95.53
2022-12-19T15:59:23.369Z,89.72
2022-12-19T16:03:27.287Z,75.60
2022-12-19T16:07:30.405Z,64.82
2022-12-19T16:11:34.634Z,67.82
2022-12-19T16:15:39.531Z,83.53
2022-12-19T16:19:42.400Z,94.90
2022-12-19T16:23:45.234Z,80.85
2022-12-19T16:27:55.035Z,72.00
2022-12-19T16:31:58.201Z,82.28
2022-12-19T16:36:06.021Z,76.05
2022-12-19T16:40:15.071Z,68.63
2022-12-19T16:44:20.649Z,66.00
2022-12-19T16:48:26.426Z,60.15
2022-12-19T16:52:29.336Z,71.10
2022-12-19T16:56:35.460Z,81.07
2022-12-19T17:00:39.648Z,79.50
2022-12-19T17:04:42.823Z,90.28
2022-12-19T17:08:46.390Z,87.03
2022-12-19T17:12:50.167Z,88.10
2022-12-19T17:16:55.857Z,76.70
2022-12-19T17:20:58.998Z,65.13
2022-12-19T17:25:02.001Z,62.83
2022-12-19T17:29:04.895Z,55.63
2022-12-19T17:33:13.083Z,52.63
2022-12-19T17:37:22.181Z,45.63
2022-12-19T17:41:25.467Z,43.72
2022-12-19T17:45:30.575Z,28.45
2022-12-19T17:49:34.975Z,25.42
2022-12-19T17:53:37.839Z,28.08
2022-12-19T17:57:40.676Z,27.52
2022-12-19T18:01:46.545Z,26.95
2022-12-19T18:05:52.542Z,32.22
2022-12-19T18:09:55.336Z,34.15
2022-12-19T18:13:58.358Z,25.52
2022-12-19T18:18:01.220Z,22.90
2022-12-19T18:22:05.456Z,25.02
2022-12-19T18:26:08.296Z,27.05
2022-12-19T18:30:14.617Z,30.83
2022-12-19T18:34:20.266Z,25.30
2022-12-19T18:38:24.961Z,28.92
2022-12-19T18:42:27.739Z,28.35
2022-12-19T18:46:31.706Z,30.88
2022-12-19T18:50:34.878Z,48.33
2022-12-19T18:54:38.996Z,40.55
2022-12-19T18:58:42.380Z,65.03
2022-12-19T19:02:48.237Z,29.83
2022-12-19T19:06:53.625Z,26.73
2022-12-19T19:10:58.124Z,35.55
2022-12-19T19:15:00.969Z,30.33
2022-12-19T19:19:06.870Z,28.83
2022-12-19T19:23:12.359Z,26.25
2022-12-19T19:27:16.607Z,25.83
2022-12-19T19:31:23.234Z,27.98
2022-12-19T19:35:27.234Z,22.20
2022-12-19T19:39:33.875Z,19.50
2022-12-19T19:43:38.072Z,32.17
2022-12-19T19:47:42.435Z,23.42
2022-12-19T19:51:45.311Z,24.80
2022-12-19T19:55:56.610Z,22.10
2022-12-19T20:00:00.755Z,21.33
2022-12-19T20:04:04.099Z,37.03
2022-12-19T20:08:07.001Z,30.25
2022-12-19T20:12:10.139Z,27.98
2022-12-19T20:16:16.656Z,18.67
2022-12-19T20:20:19.873Z,20.85
2022-12-19T20:24:23.459Z,21.42
2022-12-19T20:28:26.246Z,21.10
2022-12-19T20:32:31.475Z,16.17
2022-12-19T20:36:35.008Z,15.18
2022-12-19T20:40:37.848Z,15.40
2022-12-19T20:44:40.659Z,22.52
2022-12-19T20:48:45.906Z,17.63
2022-12-19T20:52:48.681Z,14.50
2022-12-19T20:56:51.508Z,14.73
2022-12-19T21:00:55.885Z,23.63
2022-12-19T21:05:00.291Z,17.48
2022-12-19T21:09:03.308Z,17.38
2022-12-19T21:13:06.108Z,13.35
2022-12-19T21:17:08.909Z,18.02
2022-12-19T21:21:16.209Z,18.13
2022-12-19T21:25:19.046Z,38.85
2022-12-19T21:29:22.067Z,27.80
2022-12-19T21:33:25.098Z,25.15
2022-12-19T21:37:29.342Z,26.58
2022-12-19T21:41:33.385Z,28.77
2022-12-19T21:45:36.242Z,23.77
2022-12-19T21:49:39.066Z,18.65
2022-12-19T21:53:43.878Z,19.45
2022-12-19T21:57:46.893Z,19.83
2022-12-19T22:01:49.937Z,21.33
2022-12-19T22:05:52.963Z,23.00
2022-12-19T22:09:57.154Z,23.30
2022-12-19T22:14:01.187Z,30.67
2022-12-19T22:18:04.018Z,27.75
2022-12-19T22:22:07.175Z,24.20
2022-12-19T22:26:14.253Z,23.35
2022-12-19T22:30:17.190Z,23.58
2022-12-19T22:34:21.858Z,27.65
2022-12-19T22:38:24.667Z,21.23
2022-12-19T22:42:29.656Z,20.50
2022-12-19T22:46:34.232Z,19.63
2022-12-19T22:50:36.998Z,23.77
2022-12-19T22:54:39.802Z,22.27
2022-12-19T22:58:45.696Z,20.55
2022-12-19T23:02:48.747Z,15.73
2022-12-19T23:06:51.742Z,15.40
2022-12-19T23:10:54.874Z,14.55
2022-12-19T23:14:59.344Z,14.73
2022-12-19T23:19:02.252Z,13.20
2022-12-19T23:23:05.180Z,10.60
2022-12-19T23:27:08.046Z,12.40
2022-12-19T23:31:15.804Z,13.55
2022-12-19T23:35:18.654Z,25.90
2022-12-19T23:39:21.508Z,27.58
2022-12-19T23:43:24.348Z,13.82
2022-12-19T23:47:28.690Z,29.15
2022-12-19T23:51:31.593Z,23.35
2022-12-19T23:55:34.399Z,19.48
2022-12-19T23:59:37.412Z,14.43
